Time;durP1;ratioP1;P1;durP2;ratioP2;P2;SDS_P1;SDS_P2;PMS_P1;PMS_P2;Temp;Humidity;BMP_temperature;BMP_pressure;BME280_temperature;BME280_humidity;BME280_pressure;Samples;Min_cycle;Max_cycle;Signal;HPM_P1;HPM_P2
2024/03/03 00:01:58;;;;;;;1.00;0.93;;;16.50;58.60;;;;;;5113096;28;20251;-68
2024/03/03 00:04:24;;;;;;;0.85;0.85;;;16.50;58.60;;;;;;5111214;28;20172;-67
2024/03/03 00:06:50;;;;;;;1.27;0.95;;;16.50;58.60;;;;;;5112581;28;20599;-68
2024/03/03 00:09:15;;;;;;;0.85;0.82;;;16.50;58.60;;;;;;5112539;28;20552;-68
2024/03/03 00:11:44;;;;;;;1.08;0.98;;;16.50;58.60;;;;;;5111907;28;20627;-69
2024/03/03 00:14:09;;;;;;;1.33;1.02;;;16.50;58.60;;;;;;5112056;28;20317;-68
2024/03/03 00:16:39;;;;;;;0.77;0.77;;;16.40;58.50;;;;;;5112764;28;20519;-68
2024/03/03 00:19:04;;;;;;;1.25;0.80;;;16.40;58.50;;;;;;5110878;28;20177;-69
2024/03/03 00:21:30;;;;;;;1.17;0.98;;;16.40;58.50;;;;;;5112265;28;20640;-69
2024/03/03 00:23:55;;;;;;;1.10;1.00;;;16.40;58.50;;;;;;5112480;28;20180;-69
2024/03/03 00:26:21;;;;;;;1.10;1.00;;;16.40;58.50;;;;;;5111435;28;20194;-68
2024/03/03 00:28:46;;;;;;;0.98;0.98;;;16.40;58.50;;;;;;5112426;28;20542;-68
2024/03/03 00:31:12;;;;;;;0.77;0.77;;;16.40;58.50;;;;;;5112409;28;20631;-67
2024/03/03 00:33:38;;;;;;;0.80;0.80;;;16.40;58.50;;;;;;5111560;28;20208;-68
2024/03/03 00:36:06;;;;;;;0.90;0.90;;;16.40;58.50;;;;;;5112440;28;20184;-68
2024/03/03 00:38:34;;;;;;;1.10;1.00;;;16.40;58.50;;;;;;5112133;28;20181;-70
2024/03/03 00:41:00;;;;;;;1.10;0.82;;;16.40;58.50;;;;;;5111694;28;20169;-68
2024/03/03 00:43:26;;;;;;;0.88;0.82;;;16.40;58.60;;;;;;5112008;28;20530;-68
2024/03/03 00:45:51;;;;;;;0.82;0.82;;;16.40;58.50;;;;;;5112172;28;20176;-67
2024/03/03 00:48:17;;;;;;;1.50;1.00;;;16.40;58.60;;;;;;5111216;28;20183;-69
2024/03/03 00:50:42;;;;;;;2.08;1.08;;;16.40;58.60;;;;;;5112312;28;20177;-67
2024/03/03 00:53:08;;;;;;;1.30;1.13;;;16.30;58.60;;;;;;5111213;28;20211;-68
2024/03/03 00:55:33;;;;;;;1.00;0.88;;;16.30;58.50;;;;;;5112171;28;20177;-68
2024/03/03 00:57:59;;;;;;;0.93;0.90;;;16.30;58.50;;;;;;5111997;28;20340;-68
2024/03/03 01:00:27;;;;;;;1.55;1.40;;;16.30;58.60;;;;;;5111376;28;20177;-67
2024/03/03 01:02:53;;;;;;;1.02;1.00;;;16.30;58.60;;;;;;5112109;28;20708;-68
2024/03/03 01:05:18;;;;;;;1.15;1.05;;;16.30;58.60;;;;;;5111958;28;20226;-68
2024/03/03 01:07:44;;;;;;;1.00;1.00;;;16.30;58.60;;;;;;5111466;28;20176;-69
2024/03/03 01:10:09;;;;;;;0.90;0.90;;;16.30;58.60;;;;;;5111638;28;20176;-67
2024/03/03 01:12:38;;;;;;;0.98;0.95;;;16.30;58.60;;;;;;5111854;28;20204;-69
2024/03/03 01:15:05;;;;;;;1.00;1.00;;;16.30;58.60;;;;;;5111467;28;20212;-67
2024/03/03 01:17:30;;;;;;;0.85;0.85;;;16.30;58.60;;;;;;5114990;28;20184;-68
2024/03/03 01:19:56;;;;;;;1.05;0.95;;;16.30;58.60;;;;;;5115984;28;20165;-67
2024/03/03 01:22:21;;;;;;;1.40;1.20;;;16.20;58.60;;;;;;5114954;28;20267;-68
2024/03/03 01:24:47;;;;;;;1.17;1.08;;;16.30;58.70;;;;;;5115758;28;20343;-67
2024/03/03 01:27:12;;;;;;;0.90;0.90;;;16.20;58.60;;;;;;5115602;28;20267;-67
2024/03/03 01:29:38;;;;;;;1.17;0.95;;;16.20;58.60;;;;;;5115203;28;20252;-67
2024/03/03 01:32:04;;;;;;;1.30;1.08;;;16.30;58.60;;;;;;5115819;28;20728;-68
2024/03/03 01:34:30;;;;;;;1.05;0.95;;;16.20;58.60;;;;;;5115335;28;20322;-68
2024/03/03 01:36:55;;;;;;;1.08;1.08;;;16.20;58.60;;;;;;5114851;28;20185;-69
2024/03/03 01:39:24;;;;;;;2.28;1.50;;;16.20;58.60;;;;;;5115216;28;20646;-68
2024/03/03 01:41:49;;;;;;;1.20;1.05;;;16.20;58.60;;;;;;5114991;28;20338;-69
2024/03/03 01:44:15;;;;;;;1.70;1.10;;;16.20;58.60;;;;;;5114331;28;20667;-68
2024/03/03 01:46:40;;;;;;;1.55;1.33;;;16.20;58.60;;;;;;5115305;28;20177;-68
2024/03/03 01:49:10;;;;;;;1.30;1.20;;;16.20;58.60;;;;;;5097115;28;20189;-67
2024/03/03 01:51:36;;;;;;;0.82;0.80;;;16.20;58.60;;;;;;5113375;28;20177;-68
2024/03/03 01:54:01;;;;;;;1.10;1.00;;;16.20;58.60;;;;;;5115133;28;20701;-71
2024/03/03 01:56:28;;;;;;;0.93;0.93;;;16.20;58.60;;;;;;5114104;28;20169;-68
2024/03/03 01:58:54;;;;;;;1.30;1.10;;;16.20;58.60;;;;;;5115032;28;20354;-68
2024/03/03 02:01:20;;;;;;;1.05;1.00;;;16.20;58.70;;;;;;5096899;28;20264;-68
2024/03/03 02:03:45;;;;;;;1.15;1.08;;;16.20;58.60;;;;;;5114524;28;20179;-67
2024/03/03 02:06:11;;;;;;;1.35;1.00;;;16.20;58.70;;;;;;5113566;28;20657;-68
2024/03/03 02:08:36;;;;;;;1.20;1.10;;;16.20;58.70;;;;;;5113782;28;20177;-68
2024/03/03 02:11:02;;;;;;;1.40;1.30;;;16.20;58.70;;;;;;5113427;28;20169;-67
2024/03/03 02:13:29;;;;;;;1.17;1.08;;;16.10;58.70;;;;;;5096366;28;20244;-69
2024/03/03 02:15:54;;;;;;;1.15;1.05;;;16.10;58.70;;;;;;5114906;28;20218;-67
2024/03/03 02:18:20;;;;;;;1.30;1.20;;;16.20;58.70;;;;;;5113789;28;20169;-69
2024/03/03 02:20:45;;;;;;;1.10;1.00;;;16.20;58.70;;;;;;5114829;28;20234;-67
2024/03/03 02:23:11;;;;;;;1.17;1.00;;;16.10;58.70;;;;;;5114336;28;20169;-70
2024/03/03 02:25:39;;;;;;;1.25;1.15;;;16.10;58.70;;;;;;5114237;28;20165;-67
2024/03/03 02:28:05;;;;;;;1.30;1.23;;;16.10;58.70;;;;;;5113768;28;20217;-68
2024/03/03 02:30:30;;;;;;;1.05;0.98;;;16.10;58.70;;;;;;5114370;28;20200;-67
2024/03/03 02:32:56;;;;;;;1.00;1.00;;;16.10;58.70;;;;;;5114070;28;20580;-67
2024/03/03 02:35:21;;;;;;;1.80;1.33;;;16.10;58.70;;;;;;5114056;28;20659;-68
2024/03/03 02:37:47;;;;;;;1.10;1.00;;;16.10;58.70;;;;;;5114357;28;20181;-69
2024/03/03 02:40:12;;;;;;;1.00;1.00;;;16.10;58.70;;;;;;5113496;28;20169;-68
2024/03/03 02:42:38;;;;;;;1.65;1.10;;;16.10;58.70;;;;;;5114419;28;20252;-68
2024/03/03 02:45:04;;;;;;;1.17;1.08;;;16.10;58.70;;;;;;5114433;28;20165;-67
2024/03/03 02:47:30;;;;;;;1.05;0.98;;;16.10;58.80;;;;;;5113228;28;20252;-67
2024/03/03 02:49:56;;;;;;;1.40;1.20;;;16.10;58.70;;;;;;5114126;28;20608;-67
2024/03/03 02:52:21;;;;;;;1.30;1.20;;;16.10;58.70;;;;;;5113740;28;20173;-68
2024/03/03 02:54:47;;;;;;;1.35;1.25;;;16.10;58.70;;;;;;5113264;28;20169;-68
2024/03/03 02:57:12;;;;;;;1.00;1.00;;;16.10;58.70;;;;;;5113494;28;20316;-68
2024/03/03 02:59:38;;;;;;;1.33;1.23;;;16.10;58.70;;;;;;5114099;28;20268;-68
2024/03/03 03:02:06;;;;;;;1.20;1.10;;;16.10;58.80;;;;;;5113551;28;20268;-68
2024/03/03 03:04:34;;;;;;;1.17;1.08;;;16.00;58.70;;;;;;5113671;28;20173;-68
2024/03/03 03:07:00;;;;;;;1.30;1.17;;;16.00;58.70;;;;;;5113013;28;20181;-69
2024/03/03 03:09:25;;;;;;;1.42;1.33;;;16.00;58.70;;;;;;5113687;28;20169;-68
2024/03/03 03:11:54;;;;;;;1.00;0.95;;;16.00;58.70;;;;;;5113849;28;20180;-69
2024/03/03 03:14:24;;;;;;;1.30;1.20;;;16.00;58.70;;;;;;5112569;28;20303;-68
2024/03/03 03:16:52;;;;;;;1.50;1.40;;;16.00;58.70;;;;;;5113611;28;20639;-69
2024/03/03 03:19:18;;;;;;;1.45;1.35;;;16.00;58.70;;;;;;5113173;28;20647;-68
2024/03/03 03:21:44;;;;;;;1.33;1.23;;;16.00;58.70;;;;;;5112865;28;20525;-69
2024/03/03 03:24:09;;;;;;;1.40;1.30;;;16.00;58.70;;;;;;5113121;28;20184;-68
2024/03/03 03:26:35;;;;;;;0.88;0.88;;;16.00;58.70;;;;;;5113360;28;20185;-68
2024/03/03 03:29:02;;;;;;;1.13;1.02;;;16.00;58.70;;;;;;5112632;28;20180;-67
2024/03/03 03:31:27;;;;;;;1.48;1.38;;;16.00;58.70;;;;;;5113084;28;20912;-68
2024/03/03 03:33:53;;;;;;;1.48;1.23;;;16.00;58.70;;;;;;5113236;28;20208;-68
2024/03/03 03:36:18;;;;;;;1.05;0.98;;;15.90;58.70;;;;;;5111007;28;20654;-69
2024/03/03 03:38:44;;;;;;;1.25;1.20;;;16.00;58.80;;;;;;5112969;28;20263;-69
2024/03/03 03:41:09;;;;;;;1.20;1.10;;;16.00;58.70;;;;;;5113035;28;20260;-69
2024/03/03 03:43:35;;;;;;;1.10;1.10;;;16.00;58.80;;;;;;5112360;28;20263;-69
2024/03/03 03:46:03;;;;;;;1.27;1.17;;;15.90;58.70;;;;;;5113212;28;20184;-68
2024/03/03 03:48:29;;;;;;;1.60;1.30;;;15.90;58.70;;;;;;5112564;28;20188;-69
2024/03/03 03:50:55;;;;;;;1.63;1.48;;;15.90;58.80;;;;;;5112298;28;20169;-67
2024/03/03 03:53:21;;;;;;;1.40;1.30;;;15.90;58.70;;;;;;5112789;28;20292;-68
2024/03/03 03:55:47;;;;;;;1.60;1.17;;;15.90;58.70;;;;;;5113034;28;20177;-68
2024/03/03 03:58:13;;;;;;;1.25;1.15;;;15.90;58.70;;;;;;5111746;28;20220;-68
2024/03/03 04:00:38;;;;;;;1.20;1.10;;;15.90;58.70;;;;;;5112965;28;20172;-68
2024/03/03 04:03:05;;;;;;;1.60;1.50;;;15.90;58.80;;;;;;5112090;28;20260;-68
2024/03/03 04:05:31;;;;;;;1.42;1.33;;;15.90;58.80;;;;;;5112434;28;20173;-68
2024/03/03 04:07:57;;;;;;;1.58;1.30;;;15.90;58.80;;;;;;5112950;28;20185;-69
2024/03/03 04:10:22;;;;;;;1.38;1.27;;;15.90;58.70;;;;;;5111483;28;20628;-67
2024/03/03 04:12:49;;;;;;;1.33;1.23;;;15.90;58.70;;;;;;5112505;28;20208;-68
2024/03/03 04:15:15;;;;;;;1.25;1.13;;;15.90;58.70;;;;;;5112430;28;20174;-67
2024/03/03 04:17:40;;;;;;;1.40;1.30;;;15.90;58.70;;;;;;5111884;28;20180;-69
2024/03/03 04:20:06;;;;;;;1.17;1.17;;;15.90;58.80;;;;;;5112627;28;20173;-68
2024/03/03 04:22:32;;;;;;;1.10;1.10;;;15.90;58.70;;;;;;5112163;28;20184;-68
2024/03/03 04:24:58;;;;;;;1.17;1.08;;;15.90;58.70;;;;;;5111700;28;20184;-68
2024/03/03 04:27:23;;;;;;;1.10;1.10;;;15.90;58.80;;;;;;5112568;28;20169;-68
2024/03/03 04:29:49;;;;;;;1.75;1.65;;;15.90;58.80;;;;;;5112722;28;20173;-67
2024/03/03 04:32:15;;;;;;;1.33;1.23;;;15.90;58.80;;;;;;5111489;28;20180;-69
2024/03/03 04:34:41;;;;;;;1.35;1.23;;;15.90;58.80;;;;;;5112438;28;20173;-67
2024/03/03 04:37:07;;;;;;;1.40;1.30;;;15.90;58.70;;;;;;5112844;28;20255;-69
2024/03/03 04:39:36;;;;;;;1.15;1.10;;;15.80;58.70;;;;;;5111938;28;20281;-68
2024/03/03 04:42:04;;;;;;;1.70;1.60;;;15.80;58.70;;;;;;5112429;28;20169;-69
2024/03/03 04:44:30;;;;;;;1.40;1.30;;;15.80;58.70;;;;;;5112115;28;20181;-69
2024/03/03 04:46:56;;;;;;;1.30;1.27;;;15.90;58.80;;;;;;5111572;28;20176;-68
2024/03/03 04:49:22;;;;;;;1.30;1.23;;;15.80;59.40;;;;;;5112241;28;20260;-68
2024/03/03 04:51:48;;;;;;;1.60;1.50;;;15.80;58.80;;;;;;5114447;28;20169;-68
2024/03/03 04:54:13;;;;;;;1.02;1.02;;;15.80;58.80;;;;;;5115352;28;20292;-68
2024/03/03 04:56:39;;;;;;;1.25;1.17;;;15.80;58.80;;;;;;5116425;28;20173;-69
2024/03/03 04:59:05;;;;;;;1.58;1.48;;;15.80;58.70;;;;;;5116295;28;20224;-68
2024/03/03 05:01:30;;;;;;;1.30;1.20;;;15.80;58.70;;;;;;5115266;28;20169;-69
2024/03/03 05:03:56;;;;;;;1.13;1.10;;;15.80;58.80;;;;;;5116065;28;20602;-69
2024/03/03 05:06:22;;;;;;;1.40;1.30;;;15.80;58.80;;;;;;5115268;28;20259;-69
2024/03/03 05:08:47;;;;;;;1.30;1.20;;;15.80;58.80;;;;;;5116120;28;20189;-70
2024/03/03 05:11:13;;;;;;;1.35;1.25;;;15.80;58.80;;;;;;5115846;28;20184;-69
2024/03/03 05:13:38;;;;;;;1.50;1.40;;;15.80;58.80;;;;;;5115386;28;20784;-69
2024/03/03 05:16:04;;;;;;;1.40;1.30;;;15.80;58.80;;;;;;5115957;28;20161;-68
2024/03/03 05:18:29;;;;;;;1.35;1.25;;;15.80;58.70;;;;;;5115548;28;20180;-69
2024/03/03 05:20:55;;;;;;;1.63;1.35;;;15.70;58.70;;;;;;5114778;28;20209;-68
2024/03/03 05:23:21;;;;;;;1.50;1.40;;;15.80;58.80;;;;;;5115480;28;20546;-68
2024/03/03 05:25:47;;;;;;;1.30;1.20;;;15.80;58.80;;;;;;5115836;28;20557;-68
2024/03/03 05:28:13;;;;;;;1.33;1.23;;;15.80;58.80;;;;;;5114816;28;20173;-68
2024/03/03 05:30:39;;;;;;;1.45;1.35;;;15.70;58.70;;;;;;5115653;28;20180;-67
2024/03/03 05:33:05;;;;;;;1.42;1.33;;;15.80;58.80;;;;;;5115585;28;20208;-68
2024/03/03 05:35:31;;;;;;;1.35;1.25;;;15.80;58.80;;;;;;5114632;28;20177;-68
2024/03/03 05:37:56;;;;;;;1.50;1.40;;;15.70;58.70;;;;;;5115534;28;20177;-70
2024/03/03 05:40:25;;;;;;;1.50;1.40;;;15.70;58.70;;;;;;5115353;28;20165;-68
2024/03/03 05:42:51;;;;;;;1.40;1.30;;;15.70;58.70;;;;;;5114638;28;20550;-69
2024/03/03 05:45:17;;;;;;;1.50;1.40;;;15.70;58.80;;;;;;5115065;28;20184;-67
2024/03/03 05:47:42;;;;;;;1.35;1.25;;;15.80;58.80;;;;;;5115640;28;20559;-68
2024/03/03 05:50:08;;;;;;;1.42;1.33;;;15.80;58.80;;;;;;5114555;28;20169;-68
2024/03/03 05:52:34;;;;;;;1.30;1.20;;;15.70;58.80;;;;;;5115319;28;20541;-68
2024/03/03 05:54:59;;;;;;;1.63;1.52;;;15.70;58.80;;;;;;5115162;28;20268;-68
2024/03/03 05:57:25;;;;;;;1.60;1.50;;;15.80;58.80;;;;;;5114131;28;20217;-68
2024/03/03 05:59:50;;;;;;;1.27;1.17;;;15.70;58.80;;;;;;5115148;28;20173;-67
2024/03/03 06:02:16;;;;;;;1.08;1.08;;;15.80;58.80;;;;;;5114927;28;20176;-68
2024/03/03 06:04:42;;;;;;;1.60;1.33;;;15.70;58.80;;;;;;5114472;28;20197;-67
2024/03/03 06:07:07;;;;;;;1.55;1.45;;;15.80;58.80;;;;;;5115165;28;20181;-68
2024/03/03 06:09:34;;;;;;;1.30;1.20;;;15.70;58.80;;;;;;5114497;28;20176;-68
2024/03/03 06:12:01;;;;;;;1.75;1.50;;;15.70;58.80;;;;;;5115030;27;20177;-68
2024/03/03 06:14:27;;;;;;;1.50;1.40;;;15.70;58.80;;;;;;5114411;28;20217;-68
2024/03/03 06:16:52;;;;;;;1.35;1.25;;;15.70;58.80;;;;;;5114148;28;20296;-68
2024/03/03 06:19:18;;;;;;;1.85;1.67;;;15.70;58.80;;;;;;5114642;28;20184;-68
2024/03/03 06:21:49;;;;;;;1.52;1.33;;;15.70;58.80;;;;;;5114550;28;20533;-69
2024/03/03 06:24:17;;;;;;;1.60;1.50;;;15.70;58.80;;;;;;5113820;28;20238;-67
2024/03/03 06:26:42;;;;;;;2.00;1.58;;;15.70;58.80;;;;;;5114754;27;20177;-68
2024/03/03 06:29:08;;;;;;;1.50;1.40;;;15.70;58.80;;;;;;5114178;28;20173;-68
2024/03/03 06:31:33;;;;;;;1.60;1.50;;;15.70;58.80;;;;;;5113987;28;20221;-68
2024/03/03 06:33:59;;;;;;;1.30;1.20;;;15.70;58.80;;;;;;5114655;28;20573;-68
2024/03/03 06:36:24;;;;;;;1.20;1.10;;;15.60;58.70;;;;;;5114257;28;20252;-70
2024/03/03 06:38:50;;;;;;;1.23;1.17;;;15.70;58.80;;;;;;5113837;28;20534;-69
2024/03/03 06:41:15;;;;;;;1.30;1.20;;;15.70;58.80;;;;;;5113975;28;20166;-70
2024/03/03 06:43:42;;;;;;;1.77;1.67;;;15.70;58.80;;;;;;5114236;28;20210;-68
2024/03/03 06:46:09;;;;;;;1.40;1.30;;;15.70;58.80;;;;;;5113697;28;20174;-68
2024/03/03 06:48:34;;;;;;;1.60;1.50;;;15.70;58.80;;;;;;5114402;28;20262;-68
2024/03/03 06:51:00;;;;;;;1.58;1.48;;;15.70;58.80;;;;;;5114372;28;20203;-68
2024/03/03 06:53:26;;;;;;;1.60;1.50;;;15.70;58.80;;;;;;5113172;28;20694;-68
2024/03/03 06:55:51;;;;;;;1.40;1.30;;;15.70;58.70;;;;;;5114118;28;20174;-67
2024/03/03 06:58:17;;;;;;;1.38;1.27;;;15.90;58.70;;;;;;5113309;28;20299;-68
2024/03/03 07:00:42;;;;;;;1.45;1.35;;;15.90;58.70;;;;;;5113475;28;20583;-67
2024/03/03 07:05:34;;;;;;;1.23;1.13;;;16.10;58.60;;;;;;5114050;28;20173;-68
2024/03/03 07:08:00;;;;;;;1.27;1.17;;;16.20;58.50;;;;;;5113249;28;20227;-68
2024/03/03 07:10:25;;;;;;;1.50;1.40;;;16.40;58.40;;;;;;5113530;28;20169;-68
2024/03/03 07:12:51;;;;;;;1.60;1.50;;;16.50;58.20;;;;;;5113344;28;20641;-68
2024/03/03 07:15:16;;;;;;;1.30;1.20;;;16.60;58.00;;;;;;5112802;28;20173;-68
2024/03/03 07:17:42;;;;;;;1.30;1.20;;;16.80;57.80;;;;;;5113625;28;20579;-68
2024/03/03 07:20:10;;;;;;;1.50;1.40;;;16.90;57.60;;;;;;5112860;28;20268;-68
2024/03/03 07:22:36;;;;;;;1.27;1.20;;;17.00;57.60;;;;;;5113582;28;20189;-68
2024/03/03 07:25:02;;;;;;;1.50;1.40;;;17.00;58.00;;;;;;5113611;28;20200;-67
2024/03/03 07:27:31;;;;;;;1.40;1.30;;;17.10;57.40;;;;;;5112368;28;20651;-68
2024/03/03 07:29:56;;;;;;;1.30;1.20;;;17.10;57.30;;;;;;5113309;28;20655;-67
2024/03/03 07:32:22;;;;;;;1.15;1.10;;;17.20;57.30;;;;;;5112978;28;20252;-68
2024/03/03 07:34:49;;;;;;;1.10;1.10;;;17.10;57.20;;;;;;5112684;28;20177;-68
2024/03/03 07:37:18;;;;;;;1.35;1.25;;;17.20;57.10;;;;;;5112965;28;20184;-69
2024/03/03 07:39:43;;;;;;;1.30;1.20;;;17.20;57.10;;;;;;5113273;28;20183;-68
2024/03/03 07:42:12;;;;;;;1.35;1.17;;;17.30;57.20;;;;;;5112023;28;20264;-69
2024/03/03 07:44:38;;;;;;;1.13;1.13;;;17.20;57.10;;;;;;5113366;28;20268;-68
2024/03/03 07:47:03;;;;;;;1.40;1.30;;;17.30;57.10;;;;;;5113048;28;20260;-70
2024/03/03 07:49:29;;;;;;;1.23;1.13;;;17.30;57.10;;;;;;5111853;28;20170;-68
2024/03/03 07:51:54;;;;;;;1.23;1.17;;;17.30;57.20;;;;;;5113032;28;20173;-68
2024/03/03 07:54:20;;;;;;;1.23;1.13;;;17.30;57.20;;;;;;5112539;28;20210;-68
2024/03/03 07:56:46;;;;;;;1.30;1.20;;;17.30;57.10;;;;;;5112154;28;20171;-69
2024/03/03 07:59:12;;;;;;;1.48;1.38;;;17.30;57.20;;;;;;5112474;28;20319;-68
2024/03/03 08:01:38;;;;;;;1.20;1.17;;;17.20;57.30;;;;;;5112741;28;20280;-69
2024/03/03 08:04:04;;;;;;;1.30;1.20;;;17.20;57.40;;;;;;5112249;28;20683;-69
2024/03/03 08:06:29;;;;;;;1.25;1.17;;;17.20;57.40;;;;;;5112525;28;20534;-70
2024/03/03 08:08:55;;;;;;;1.10;1.10;;;17.30;57.40;;;;;;5112628;28;20215;-68
2024/03/03 08:11:20;;;;;;;1.40;1.30;;;17.30;57.40;;;;;;5111615;28;20331;-69
2024/03/03 08:13:46;;;;;;;1.40;1.30;;;17.30;57.30;;;;;;5112727;28;20699;-69
2024/03/03 08:16:11;;;;;;;1.40;1.30;;;17.30;57.30;;;;;;5111723;28;20180;-68
2024/03/03 08:18:37;;;;;;;1.05;1.05;;;17.30;57.20;;;;;;5112654;28;20184;-69
2024/03/03 08:21:02;;;;;;;1.00;1.00;;;17.40;57.30;;;;;;5112575;28;20169;-68
2024/03/03 08:23:28;;;;;;;1.35;1.20;;;17.40;57.20;;;;;;5111556;28;20177;-69
2024/03/03 08:25:54;;;;;;;1.27;1.20;;;17.40;57.90;;;;;;5111625;28;20180;-67
2024/03/03 08:28:19;;;;;;;1.35;1.25;;;17.40;57.20;;;;;;5112197;28;20627;-69
2024/03/03 08:30:45;;;;;;;1.30;1.20;;;17.40;57.20;;;;;;5112103;28;20180;-68
2024/03/03 08:33:10;;;;;;;1.40;1.30;;;17.50;57.30;;;;;;5112282;28;20622;-68
2024/03/03 08:35:36;;;;;;;1.40;1.30;;;17.50;57.20;;;;;;5112430;28;20177;-68
2024/03/03 08:38:02;;;;;;;1.38;1.27;;;17.50;57.10;;;;;;5111761;28;20624;-69
2024/03/03 08:40:27;;;;;;;1.60;1.50;;;17.40;57.10;;;;;;5111992;28;20180;-69
2024/03/03 08:42:53;;;;;;;1.60;1.50;;;17.50;57.10;;;;;;5112617;28;20564;-67
2024/03/03 08:45:18;;;;;;;1.67;1.58;;;17.50;57.20;;;;;;5111626;28;20734;-66
2024/03/03 08:47:44;;;;;;;3.22;1.60;;;17.40;57.20;;;;;;5112560;28;20185;-66
2024/03/03 08:50:15;;;;;;;1.92;1.75;;;17.40;57.50;;;;;;5112030;28;20176;-71
2024/03/03 08:52:40;;;;;;;3.75;2.13;;;17.40;57.50;;;;;;5111524;28;20204;-69
2024/03/03 08:55:06;;;;;;;2.05;1.35;;;17.40;57.70;;;;;;5112150;28;20223;-67
2024/03/03 08:57:32;;;;;;;1.98;1.50;;;17.40;57.80;;;;;;5111964;28;20256;-67
2024/03/03 08:59:57;;;;;;;2.47;1.52;;;17.30;58.00;;;;;;5111610;28;20267;-67
2024/03/03 09:02:23;;;;;;;3.20;1.60;;;17.30;58.00;;;;;;5111769;28;20184;-69
2024/03/03 09:04:49;;;;;;;2.97;1.75;;;17.30;58.20;;;;;;5112094;28;20173;-66
2024/03/03 09:07:14;;;;;;;2.47;1.73;;;17.40;58.90;;;;;;5110842;28;20229;-68
2024/03/03 09:09:43;;;;;;;2.72;1.52;;;17.40;58.20;;;;;;5111739;28;20173;-66
2024/03/03 09:12:08;;;;;;;6.18;2.13;;;17.30;58.40;;;;;;5111917;28;20170;-67
2024/03/03 09:14:34;;;;;;;2.17;1.65;;;17.30;58.40;;;;;;5111444;28;20249;-66
2024/03/03 09:17:00;;;;;;;1.70;1.60;;;17.20;58.50;;;;;;5112059;28;20211;-68
2024/03/03 09:19:26;;;;;;;4.45;1.85;;;17.20;58.50;;;;;;5111713;28;20535;-67
2024/03/03 09:21:51;;;;;;;4.03;1.90;;;17.20;58.60;;;;;;5111483;28;20260;-68
2024/03/03 09:24:19;;;;;;;3.05;1.65;;;17.20;58.70;;;;;;5111968;28;20174;-66
2024/03/03 09:26:45;;;;;;;3.20;1.50;;;17.30;58.50;;;;;;5111343;28;20539;-67
2024/03/03 09:29:11;;;;;;;2.42;1.70;;;17.30;58.40;;;;;;5111697;28;20252;-68
2024/03/03 09:31:36;;;;;;;2.35;1.50;;;17.30;58.40;;;;;;5112028;28;20661;-67
2024/03/03 09:34:02;;;;;;;2.58;1.48;;;17.30;58.50;;;;;;5111161;28;20731;-66
2024/03/03 09:36:27;;;;;;;3.47;2.00;;;17.30;58.50;;;;;;5111577;28;20761;-68
2024/03/03 09:38:53;;;;;;;1.63;1.52;;;17.30;58.60;;;;;;5115524;28;20252;-67
2024/03/03 09:41:21;;;;;;;1.73;1.55;;;17.30;58.60;;;;;;5114620;28;20176;-68
2024/03/03 09:43:50;;;;;;;2.28;1.70;;;17.40;58.60;;;;;;5114171;28;20625;-68
2024/03/03 09:46:15;;;;;;;1.95;1.85;;;17.40;58.60;;;;;;5115341;28;20237;-67
2024/03/03 09:48:42;;;;;;;1.63;1.48;;;17.40;58.60;;;;;;5114644;28;20169;-67
2024/03/03 09:51:11;;;;;;;2.42;1.48;;;17.40;58.80;;;;;;5113931;28;20179;-67
2024/03/03 09:53:37;;;;;;;1.60;1.50;;;17.40;58.80;;;;;;5114089;28;20303;-67
2024/03/03 09:56:04;;;;;;;3.28;1.70;;;17.40;58.80;;;;;;5113320;28;20704;-67
2024/03/03 09:58:29;;;;;;;2.92;1.38;;;17.40;58.80;;;;;;5096912;28;20229;-67
2024/03/03 10:00:56;;;;;;;1.77;1.50;;;17.40;59.40;;;;;;5115249;28;20572;-66
2024/03/03 10:03:21;;;;;;;1.33;1.23;;;17.40;58.80;;;;;;5114158;28;20242;-67
2024/03/03 10:05:47;;;;;;;1.65;1.45;;;17.40;58.80;;;;;;5096981;28;20640;-67
2024/03/03 10:08:15;;;;;;;1.67;1.50;;;17.40;58.90;;;;;;5113731;28;20562;-68
2024/03/03 10:10:42;;;;;;;1.83;1.33;;;17.40;58.90;;;;;;5096325;28;20213;-67
2024/03/03 10:13:08;;;;;;;2.65;1.30;;;17.40;58.90;;;;;;5113585;28;20193;-66
2024/03/03 10:15:34;;;;;;;1.70;1.60;;;17.40;59.20;;;;;;5096718;28;20218;-66
2024/03/03 10:18:02;;;;;;;1.55;1.45;;;17.40;59.00;;;;;;5096039;28;20170;-66
2024/03/03 10:20:29;;;;;;;2.38;1.65;;;17.30;59.10;;;;;;5114461;28;20206;-67
2024/03/03 10:22:55;;;;;;;3.15;1.65;;;17.40;59.10;;;;;;5114070;28;20636;-67
2024/03/03 10:25:22;;;;;;;2.47;1.80;;;17.40;59.20;;;;;;5114624;28;20180;-66
2024/03/03 10:27:48;;;;;;;2.00;1.90;;;17.40;59.10;;;;;;5114579;28;20537;-66
2024/03/03 10:30:17;;;;;;;2.17;2.00;;;17.50;59.10;;;;;;5113704;27;20298;-66
2024/03/03 10:32:43;;;;;;;2.83;1.98;;;17.50;59.00;;;;;;5114477;28;20196;-66
2024/03/03 10:35:12;;;;;;;2.53;2.05;;;17.60;58.90;;;;;;5114154;28;20639;-66
2024/03/03 10:38:01;;;;;;;2.25;2.05;;;17.60;58.80;;;;;;5113976;28;20182;-67
2024/03/03 10:40:31;;;;;;;2.33;2.05;;;17.70;58.80;;;;;;5114409;28;20169;-66
2024/03/03 10:42:56;;;;;;;3.10;2.70;;;17.70;58.80;;;;;;5114410;28;20238;-67
2024/03/03 10:45:22;;;;;;;3.35;1.95;;;17.60;58.70;;;;;;5113200;28;20198;-66
2024/03/03 10:47:48;;;;;;;3.00;1.88;;;17.70;58.80;;;;;;5114400;28;20204;-66
2024/03/03 10:50:23;;;;;;;2.78;2.50;;;17.70;58.80;;;;;;5113012;28;20223;-66
2024/03/03 10:52:49;;;;;;;2.90;1.92;;;17.70;58.80;;;;;;5113432;28;20248;-67
2024/03/03 10:55:16;;;;;;;2.33;2.13;;;17.80;58.80;;;;;;5113926;28;20192;-67
2024/03/03 10:57:45;;;;;;;2.85;2.40;;;17.80;58.80;;;;;;5113903;28;20594;-67
2024/03/03 11:00:16;;;;;;;2.45;2.20;;;17.80;58.80;;;;;;5113287;28;20173;-66
2024/03/03 11:02:41;;;;;;;4.78;2.70;;;17.80;58.80;;;;;;5114014;28;20180;-67
2024/03/03 11:05:09;;;;;;;2.70;2.47;;;17.80;58.90;;;;;;5112616;28;20229;-66
2024/03/03 11:07:38;;;;;;;3.25;2.17;;;17.70;58.90;;;;;;5111714;28;20176;-67
2024/03/03 11:10:04;;;;;;;2.88;1.98;;;17.80;58.90;;;;;;5112418;28;20180;-66
2024/03/03 11:12:30;;;;;;;2.85;2.40;;;17.80;59.00;;;;;;5110640;28;20197;-67
2024/03/03 11:14:56;;;;;;;2.25;2.03;;;17.70;59.00;;;;;;5112300;27;20242;-66
2024/03/03 11:17:23;;;;;;;3.10;1.95;;;17.70;59.10;;;;;;5123968;27;20639;-66
2024/03/03 11:19:52;;;;;;;2.53;2.20;;;17.80;59.10;;;;;;5115656;27;20639;-66
2024/03/03 11:22:24;;;;;;;2.55;1.90;;;17.80;59.20;;;;;;5113357;28;20201;-66
2024/03/03 11:24:56;;;;;;;3.13;2.15;;;17.80;59.20;;;;;;5127828;27;20176;-65
2024/03/03 11:27:31;;;;;;;2.58;2.20;;;17.70;59.20;;;;;;5133192;27;20184;-66
2024/03/03 11:29:57;;;;;;;2.03;1.75;;;17.80;59.30;;;;;;5134378;27;20172;-65
2024/03/03 11:32:27;;;;;;;2.05;1.85;;;17.80;59.30;;;;;;5127462;27;20659;-66
2024/03/03 11:34:53;;;;;;;2.38;1.80;;;17.90;59.20;;;;;;5094898;28;20687;-66
2024/03/03 11:37:18;;;;;;;2.53;2.28;;;17.90;59.20;;;;;;5094820;28;20179;-67
2024/03/03 11:39:54;;;;;;;2.17;1.80;;;17.90;59.10;;;;;;5095347;28;20538;-66
2024/03/03 11:42:21;;;;;;;2.28;2.00;;;18.00;59.10;;;;;;5112153;28;20565;-66
2024/03/03 11:44:48;;;;;;;2.47;2.03;;;18.10;59.10;;;;;;5113339;28;20165;-66
2024/03/03 11:47:13;;;;;;;2.80;1.92;;;18.00;59.20;;;;;;5112226;28;20181;-66
2024/03/03 11:49:41;;;;;;;2.22;1.83;;;18.00;59.20;;;;;;5120854;27;20249;-65
2024/03/03 11:52:06;;;;;;;2.00;1.80;;;17.90;59.30;;;;;;5133485;27;20200;-66
2024/03/03 11:54:36;;;;;;;2.05;1.85;;;17.90;59.50;;;;;;5132613;27;20780;-67
2024/03/03 11:57:17;;;;;;;1.90;1.80;;;17.90;59.40;;;;;;5132982;27;20196;-66
2024/03/03 11:59:45;;;;;;;1.88;1.77;;;18.00;59.40;;;;;;5133482;27;20229;-66
2024/03/03 12:02:14;;;;;;;1.70;1.60;;;18.10;59.30;;;;;;5132310;27;20179;-65
2024/03/03 12:04:44;;;;;;;3.10;1.80;;;18.10;59.20;;;;;;5132200;27;20180;-66
2024/03/03 12:07:20;;;;;;;2.25;1.90;;;18.20;59.30;;;;;;5133310;27;20263;-66
2024/03/03 12:09:46;;;;;;;1.83;1.60;;;18.20;59.30;;;;;;5131530;27;20160;-66
2024/03/03 12:12:12;;;;;;;2.53;1.80;;;18.20;59.30;;;;;;5133022;27;20601;-67
2024/03/03 12:14:38;;;;;;;3.35;2.08;;;18.20;59.20;;;;;;5132960;27;20680;-67
2024/03/03 12:17:05;;;;;;;2.03;1.83;;;18.20;59.20;;;;;;5132471;27;20225;-66
2024/03/03 12:19:34;;;;;;;2.28;2.08;;;18.30;59.40;;;;;;5132704;27;20188;-67
2024/03/03 12:22:00;;;;;;;2.10;1.70;;;18.30;59.50;;;;;;5133439;27;20177;-67
2024/03/03 12:24:26;;;;;;;2.83;2.30;;;18.20;59.40;;;;;;5100801;28;20177;-68
2024/03/03 12:26:52;;;;;;;3.25;2.00;;;18.30;59.50;;;;;;5110427;28;20192;-70
2024/03/03 12:29:17;;;;;;;3.20;2.00;;;18.30;59.50;;;;;;5112276;28;20552;-69
2024/03/03 12:31:43;;;;;;;3.75;2.05;;;18.30;59.40;;;;;;5111597;28;20188;-67
2024/03/03 12:34:08;;;;;;;2.88;1.83;;;18.30;59.40;;;;;;5112217;28;20347;-68
2024/03/03 12:36:34;;;;;;;2.90;2.33;;;18.30;59.40;;;;;;5111984;28;20209;-64
2024/03/03 12:38:59;;;;;;;2.58;1.67;;;18.30;59.50;;;;;;5111459;28;20260;-64
2024/03/03 12:41:25;;;;;;;2.13;1.77;;;18.30;59.50;;;;;;5110957;28;20252;-65
2024/03/03 12:43:55;;;;;;;1.70;1.60;;;18.30;59.50;;;;;;5111709;28;20177;-72
2024/03/03 12:46:21;;;;;;;2.40;1.98;;;18.30;59.60;;;;;;5111838;28;20512;-66